Terminal Aerodrome Forecast
Issued by NWS Paducah, KY

Home | Current Version | Previous Version | Text Only | Print | Product List | Glossary On
Versions: 1 2 3 4 5 6 7 8 9 10 11 12 13 14 15 16 17 18 19 20 21
612
FTUS43 KPAH 270939 AAA
TAFEVV
TAF AMD
KEVV 270939Z 2710/2806 21007KT 6SM -RA BR BKN018 OVC030
     FM271100 24011KT P6SM OVC015
     FM271700 25010KT P6SM OVC030
     FM272100 25008KT P6SM BKN050=

USA.gov is the U.S. government's official web portal to all federal, state and local government web resources and services.